createdAt,value
2017-05-21T00:00:40.667Z,5.68
2017-05-21T00:03:08.349Z,8.00
2017-05-21T00:05:36.734Z,6.12
2017-05-21T00:08:05.394Z,5.93
2017-05-21T00:10:33.009Z,9.80
2017-05-21T00:13:01.496Z,6.75
2017-05-21T00:15:29.973Z,6.88
2017-05-21T00:17:57.693Z,7.00
2017-05-21T00:20:25.396Z,8.35
2017-05-21T00:22:53.503Z,5.98
2017-05-21T00:25:21.366Z,6.73
2017-05-21T00:27:49.084Z,10.48
2017-05-21T00:30:17.609Z,6.58
2017-05-21T00:32:46.153Z,6.98
2017-05-21T00:35:14.591Z,6.22
2017-05-21T00:37:42.531Z,9.10
2017-05-21T00:40:10.323Z,6.73
2017-05-21T00:42:38.820Z,8.03
2017-05-21T00:45:07.233Z,8.90
2017-05-21T00:47:34.861Z,6.25
2017-05-21T00:50:03.239Z,7.22
2017-05-21T00:52:31.874Z,7.25
2017-05-21T00:54:59.909Z,8.02
2017-05-21T00:57:27.618Z,8.08
2017-05-21T00:59:55.458Z,7.40
2017-05-21T01:02:24.011Z,7.85
2017-05-21T01:04:51.716Z,7.83
2017-05-21T01:07:20.241Z,7.38
2017-05-21T01:09:48.849Z,7.60
2017-05-21T01:12:16.540Z,8.83
2017-05-21T01:14:45.078Z,10.88
2017-05-21T01:17:13.830Z,9.32
2017-05-21T01:19:41.577Z,8.88
2017-05-21T01:22:09.497Z,9.23
2017-05-21T01:24:37.194Z,12.43
2017-05-21T01:27:05.026Z,8.88
2017-05-21T01:29:32.730Z,12.73
2017-05-21T01:32:01.184Z,8.33
2017-05-21T01:34:29.124Z,9.48
2017-05-21T01:36:57.628Z,9.60
2017-05-21T01:39:26.249Z,10.87
2017-05-21T01:41:54.860Z,8.57
2017-05-21T01:44:23.230Z,9.98
2017-05-21T01:46:51.083Z,9.40
2017-05-21T01:49:18.584Z,12.07
2017-05-21T01:51:46.208Z,9.57
2017-05-21T01:54:13.703Z,10.02
2017-05-21T01:56:41.239Z,9.03
2017-05-21T01:59:09.545Z,10.60
2017-05-21T02:01:37.064Z,10.62
2017-05-21T02:04:05.402Z,9.18
2017-05-21T02:06:33.687Z,10.63
2017-05-21T02:09:01.211Z,10.13
2017-05-21T02:11:28.707Z,10.27
2017-05-21T02:13:56.218Z,11.95
2017-05-21T02:16:24.507Z,12.35
2017-05-21T02:18:52.793Z,11.47
2017-05-21T02:21:21.142Z,10.53
2017-05-21T02:23:48.699Z,10.93
2017-05-21T02:26:16.253Z,11.50
2017-05-21T02:28:44.579Z,11.62
2017-05-21T02:31:12.085Z,12.33
2017-05-21T02:33:39.688Z,11.17
2017-05-21T02:36:08.003Z,11.27
2017-05-21T02:38:36.319Z,12.92
2017-05-21T02:41:04.605Z,11.45
2017-05-21T02:43:32.375Z,11.73
2017-05-21T02:46:00.731Z,10.30
2017-05-21T02:48:28.991Z,10.53
2017-05-21T02:50:57.255Z,14.03
2017-05-21T02:53:24.808Z,11.12
2017-05-21T02:55:52.342Z,10.33
2017-05-21T02:58:19.875Z,12.27
2017-05-21T03:00:47.407Z,10.85
2017-05-21T03:03:15.727Z,11.97
2017-05-21T03:05:43.290Z,11.77
2017-05-21T03:08:11.124Z,12.63
2017-05-21T03:10:39.427Z,13.13
2017-05-21T03:13:06.963Z,14.77
2017-05-21T03:15:34.691Z,11.92
2017-05-21T03:18:02.608Z,11.63
2017-05-21T03:20:30.153Z,17.35
2017-05-21T03:22:58.023Z,12.23
2017-05-21T03:25:25.577Z,11.95
2017-05-21T03:27:53.091Z,14.35
2017-05-21T03:30:20.906Z,13.65
2017-05-21T03:32:48.643Z,11.32
2017-05-21T03:35:16.221Z,11.40
2017-05-21T03:37:44.488Z,12.77
2017-05-21T03:40:13.059Z,12.23
2017-05-21T03:42:40.632Z,11.37
2017-05-21T03:45:08.157Z,11.40
2017-05-21T03:47:36.454Z,12.85
2017-05-21T03:50:03.988Z,12.73
2017-05-21T03:52:31.512Z,12.32
2017-05-21T03:54:59.044Z,11.98
2017-05-21T03:57:26.568Z,11.77
2017-05-21T03:59:54.868Z,10.57
2017-05-21T04:02:23.444Z,11.97
2017-05-21T04:04:50.963Z,12.20
2017-05-21T04:07:18.479Z,10.37
2017-05-21T04:09:46.823Z,12.00
2017-05-21T04:12:14.395Z,10.75
2017-05-21T04:14:41.899Z,11.25
2017-05-21T04:17:09.403Z,11.52
2017-05-21T04:19:36.915Z,10.95
2017-05-21T04:22:05.215Z,9.52
2017-05-21T04:24:32.797Z,10.00
2017-05-21T04:27:00.313Z,13.48
2017-05-21T04:29:28.049Z,10.15
2017-05-21T04:31:55.863Z,12.57
2017-05-21T04:34:24.193Z,11.27
2017-05-21T04:36:52.821Z,11.25
2017-05-21T04:39:21.147Z,9.98
2017-05-21T04:41:49.419Z,14.42
2017-05-21T04:44:16.996Z,11.52
2017-05-21T04:46:44.522Z,10.58
2017-05-21T04:49:12.088Z,10.87
2017-05-21T04:51:39.607Z,10.55
2017-05-21T04:54:07.469Z,12.58
2017-05-21T04:56:35.768Z,11.57
2017-05-21T04:59:04.040Z,12.83
2017-05-21T05:01:32.362Z,10.82
2017-05-21T05:04:00.868Z,12.08
2017-05-21T05:06:29.181Z,11.30
2017-05-21T05:08:56.788Z,12.38
2017-05-21T05:11:24.299Z,12.65
2017-05-21T05:13:51.847Z,11.22
2017-05-21T05:16:19.362Z,10.87
2017-05-21T05:18:46.909Z,9.55
2017-05-21T05:21:14.693Z,10.03
2017-05-21T05:23:42.214Z,10.12
2017-05-21T05:26:09.795Z,11.10
2017-05-21T05:28:37.325Z,8.57
2017-05-21T05:31:04.829Z,9.03
2017-05-21T05:33:32.356Z,9.00
2017-05-21T05:35:59.899Z,8.57
2017-05-21T05:38:28.558Z,9.57
2017-05-21T05:40:56.059Z,8.15
2017-05-21T05:43:23.838Z,7.85
2017-05-21T05:45:51.409Z,6.68
2017-05-21T05:48:19.724Z,7.93
2017-05-21T05:50:48.063Z,8.07
2017-05-21T05:53:15.616Z,7.76
2017-05-21T05:55:44.236Z,7.64
2017-05-21T05:58:11.784Z,7.68
2017-05-21T06:00:42.413Z,8.00
2017-05-21T06:03:10.340Z,7.66
2017-05-21T06:05:38.209Z,7.68
2017-05-21T06:08:06.520Z,7.62
2017-05-21T06:10:34.807Z,7.40
2017-05-21T06:13:02.358Z,7.96
2017-05-21T06:15:31.096Z,7.98
2017-05-21T06:17:58.624Z,8.30
2017-05-21T06:20:26.947Z,7.40
2017-05-21T06:22:55.274Z,8.02
2017-05-21T06:25:22.948Z,8.56
2017-05-21T06:27:50.472Z,7.28
2017-05-21T06:30:20.978Z,7.98
2017-05-21T06:32:49.886Z,7.90
2017-05-21T06:35:18.215Z,7.48
2017-05-21T06:37:46.542Z,11.22
2017-05-21T06:40:14.880Z,9.12
2017-05-21T06:42:42.409Z,8.68
2017-05-21T06:45:11.035Z,7.62
2017-05-21T06:47:39.324Z,7.80
2017-05-21T06:50:06.836Z,8.52
2017-05-21T06:52:34.405Z,8.90
2017-05-21T06:55:02.012Z,9.67
2017-05-21T06:57:30.303Z,8.40
2017-05-21T06:59:57.868Z,7.73
2017-05-21T07:02:25.642Z,7.50
2017-05-21T07:04:53.172Z,7.70
2017-05-21T07:07:20.897Z,7.27
2017-05-21T07:09:49.166Z,8.15
2017-05-21T07:12:17.452Z,8.22
2017-05-21T07:14:45.987Z,7.58
2017-05-21T07:17:13.563Z,8.18
2017-05-21T07:19:41.125Z,8.63
2017-05-21T07:22:08.867Z,8.80
2017-05-21T07:24:37.159Z,10.48
2017-05-21T07:27:04.910Z,10.10
2017-05-21T07:29:33.263Z,10.58
2017-05-21T07:32:01.044Z,9.23
2017-05-21T07:34:29.340Z,9.48
2017-05-21T07:36:56.861Z,9.52
2017-05-21T07:39:24.388Z,8.93
2017-05-21T07:41:51.920Z,11.02
2017-05-21T07:44:19.464Z,9.72
2017-05-21T07:46:47.855Z,11.38
2017-05-21T07:49:15.432Z,11.47
2017-05-21T07:51:43.752Z,12.72
2017-05-21T07:54:11.350Z,11.00
2017-05-21T07:56:39.213Z,11.28
2017-05-21T07:59:07.516Z,10.97
2017-05-21T08:01:36.034Z,12.12
2017-05-21T08:04:04.524Z,9.88
2017-05-21T08:06:32.113Z,10.50
2017-05-21T08:09:00.381Z,8.90
2017-05-21T08:11:28.681Z,11.40
2017-05-21T08:13:56.248Z,9.27
2017-05-21T08:16:23.807Z,9.68
2017-05-21T08:18:52.437Z,9.45
2017-05-21T08:21:20.704Z,9.78
2017-05-21T08:23:48.971Z,10.30
2017-05-21T08:26:17.344Z,9.32
2017-05-21T08:28:44.871Z,9.93
2017-05-21T08:31:12.431Z,9.52
2017-05-21T08:33:39.990Z,10.08
2017-05-21T08:36:07.499Z,8.37
2017-05-21T08:38:35.026Z,8.55
2017-05-21T08:41:02.524Z,7.25
2017-05-21T08:43:30.896Z,8.20
2017-05-21T08:45:58.391Z,9.25
2017-05-21T08:48:25.905Z,10.73
2017-05-21T08:50:54.483Z,8.23
2017-05-21T08:53:22.048Z,8.25
2017-05-21T08:55:49.611Z,8.35
2017-05-21T08:58:17.641Z,10.10
2017-05-21T09:00:45.139Z,8.17
2017-05-21T09:03:13.466Z,10.38
2017-05-21T09:05:41.740Z,9.90
2017-05-21T09:08:09.608Z,9.17
2017-05-21T09:10:38.166Z,10.15
2017-05-21T09:13:05.980Z,7.00
2017-05-21T09:15:33.566Z,9.58
2017-05-21T09:18:01.124Z,8.38
2017-05-21T09:20:28.932Z,8.72
2017-05-21T09:22:57.617Z,7.50
2017-05-21T09:25:25.977Z,8.43
2017-05-21T09:27:53.559Z,11.87
2017-05-21T09:30:21.827Z,9.65
2017-05-21T09:32:49.377Z,9.68
2017-05-21T09:35:17.098Z,9.25
2017-05-21T09:37:45.058Z,9.28
2017-05-21T09:40:12.779Z,10.82
2017-05-21T09:42:40.411Z,10.12
2017-05-21T09:45:08.830Z,9.52
2017-05-21T09:47:36.343Z,10.78
2017-05-21T09:50:03.955Z,10.60
2017-05-21T09:52:32.890Z,10.42
2017-05-21T09:55:03.219Z,9.92
2017-05-21T09:57:32.671Z,11.82
2017-05-21T10:00:03.307Z,12.42
2017-05-21T10:02:34.351Z,12.52
2017-05-21T10:05:04.801Z,10.65
2017-05-21T10:07:36.028Z,10.62
2017-05-21T10:10:06.077Z,12.07
2017-05-21T10:12:34.547Z,10.38
2017-05-21T10:15:02.280Z,12.80
2017-05-21T10:17:29.840Z,9.42
2017-05-21T10:19:57.344Z,8.82
2017-05-21T10:22:24.916Z,8.98
2017-05-21T10:24:52.492Z,8.13
2017-05-21T10:27:20.092Z,8.18
2017-05-21T10:29:47.707Z,8.93
2017-05-21T10:32:15.204Z,9.17
2017-05-21T10:34:43.002Z,9.02
2017-05-21T10:37:10.568Z,7.47
2017-05-21T10:39:38.103Z,7.25
2017-05-21T10:42:06.413Z,7.15
2017-05-21T10:44:34.741Z,9.07
2017-05-21T10:47:02.287Z,7.50
2017-05-21T10:49:30.590Z,7.67
2017-05-21T10:51:58.360Z,9.27
2017-05-21T10:54:26.131Z,10.25
2017-05-21T10:56:53.688Z,8.88
2017-05-21T10:59:21.951Z,8.63
2017-05-21T11:01:50.242Z,7.72
2017-05-21T11:04:18.096Z,3.78
2017-05-21T11:06:45.608Z,4.75
2017-05-21T11:09:14.145Z,5.02
2017-05-21T11:11:41.647Z,4.45
2017-05-21T11:14:09.363Z,4.73
2017-05-21T11:16:37.118Z,5.50
2017-05-21T11:19:04.810Z,6.10
2017-05-21T11:21:32.745Z,7.58
2017-05-21T11:24:00.435Z,8.02
2017-05-21T11:26:28.162Z,6.33
2017-05-21T11:28:56.564Z,4.92
2017-05-21T11:31:24.321Z,6.37
2017-05-21T11:33:56.554Z,5.60
2017-05-21T11:36:24.188Z,4.67
2017-05-21T11:38:53.265Z,5.13
2017-05-21T11:41:22.011Z,4.97
2017-05-21T11:43:49.646Z,5.05
2017-05-21T11:46:18.252Z,4.27
2017-05-21T11:48:47.082Z,4.55
2017-05-21T11:51:15.815Z,6.22
2017-05-21T11:53:43.458Z,6.87
2017-05-21T11:56:16.199Z,7.58
2017-05-21T11:58:44.441Z,6.60
2017-05-21T12:01:13.774Z,6.57
2017-05-21T12:03:42.577Z,7.05
2017-05-21T12:06:10.470Z,7.70
2017-05-21T12:08:38.121Z,8.23
2017-05-21T12:11:06.570Z,9.25
2017-05-21T12:13:35.878Z,7.12
2017-05-21T12:16:05.256Z,8.97
2017-05-21T12:18:34.708Z,9.23
2017-05-21T12:21:02.534Z,6.02
2017-05-21T12:23:30.350Z,5.42
2017-05-21T12:26:00.997Z,6.32
2017-05-21T12:28:31.603Z,5.25
2017-05-21T12:31:00.013Z,5.95
2017-05-21T12:33:27.765Z,6.23
2017-05-21T12:35:56.220Z,6.78
2017-05-21T12:38:24.058Z,5.75
2017-05-21T12:40:51.917Z,6.08
2017-05-21T12:43:19.721Z,6.12
2017-05-21T12:45:48.189Z,5.03
2017-05-21T12:48:15.788Z,5.73
2017-05-21T12:50:44.200Z,4.88
2017-05-21T12:53:11.935Z,5.72
2017-05-21T12:55:40.501Z,5.40
2017-05-21T12:58:09.038Z,5.33
2017-05-21T13:00:37.079Z,6.73
2017-05-21T13:03:04.722Z,7.62
2017-05-21T13:05:32.541Z,7.83
2017-05-21T13:08:01.028Z,7.68
2017-05-21T13:10:28.792Z,8.78
2017-05-21T13:12:56.480Z,8.30
2017-05-21T13:15:25.865Z,8.28
2017-05-21T13:17:54.813Z,7.60
2017-05-21T13:20:22.558Z,6.85
2017-05-21T13:22:50.266Z,8.28
2017-05-21T13:25:18.544Z,7.37
2017-05-21T13:27:46.833Z,7.57
2017-05-21T13:30:15.104Z,6.95
2017-05-21T13:32:42.728Z,7.50
2017-05-21T13:35:10.505Z,6.62
2017-05-21T13:37:38.046Z,6.65
2017-05-21T13:40:06.383Z,6.20
2017-05-21T13:42:33.879Z,6.72
2017-05-21T13:45:02.256Z,5.58
2017-05-21T13:47:29.807Z,5.27
2017-05-21T13:49:57.313Z,6.03
2017-05-21T13:52:25.689Z,5.68
2017-05-21T13:54:53.227Z,5.50
2017-05-21T13:57:21.080Z,6.47
2017-05-21T13:59:48.639Z,4.75
2017-05-21T14:02:16.965Z,4.23
2017-05-21T14:04:45.300Z,5.22
2017-05-21T14:07:13.633Z,5.75
2017-05-21T14:09:42.563Z,4.95
2017-05-21T14:12:10.873Z,4.65
2017-05-21T14:14:39.150Z,5.80
2017-05-21T14:17:07.470Z,6.02
2017-05-21T14:19:35.020Z,4.97
2017-05-21T14:22:02.651Z,4.70
2017-05-21T14:24:30.915Z,6.45
2017-05-21T14:26:58.415Z,4.92
2017-05-21T14:29:26.767Z,5.83
2017-05-21T14:31:54.307Z,5.20
2017-05-21T14:34:21.884Z,5.12
2017-05-21T14:36:49.387Z,5.38
2017-05-21T14:39:17.699Z,6.02
2017-05-21T14:41:45.264Z,6.77
2017-05-21T14:44:13.241Z,5.50
2017-05-21T14:46:41.568Z,6.68
2017-05-21T14:49:09.934Z,5.88
2017-05-21T14:51:37.427Z,5.77
2017-05-21T14:54:04.976Z,7.07
2017-05-21T14:56:33.245Z,6.38
2017-05-21T14:59:01.597Z,7.10
2017-05-21T15:01:29.141Z,8.08
2017-05-21T15:03:57.668Z,6.73
2017-05-21T15:06:25.358Z,6.90
2017-05-21T15:08:53.778Z,6.48
2017-05-21T15:11:21.573Z,6.90
2017-05-21T15:13:49.577Z,7.72
2017-05-21T15:16:18.149Z,7.90
2017-05-21T15:18:46.999Z,6.62
2017-05-21T15:21:14.719Z,6.75
2017-05-21T15:23:43.635Z,7.83
2017-05-21T15:26:12.118Z,7.60
2017-05-21T15:28:39.845Z,7.37
2017-05-21T15:31:08.499Z,6.52
2017-05-21T15:33:36.213Z,5.42
2017-05-21T15:36:03.902Z,6.45
2017-05-21T15:38:31.575Z,7.00
2017-05-21T15:40:59.393Z,8.42
2017-05-21T15:43:27.854Z,5.80
2017-05-21T15:45:55.773Z,6.17
2017-05-21T15:48:24.301Z,5.72
2017-05-21T15:50:53.273Z,5.92
2017-05-21T15:53:21.217Z,5.53
2017-05-21T15:55:49.076Z,4.72
2017-05-21T15:58:17.057Z,5.50
2017-05-21T16:00:45.046Z,4.93
2017-05-21T16:03:14.036Z,4.87
2017-05-21T16:05:42.777Z,4.92
2017-05-21T16:08:10.762Z,4.27
2017-05-21T16:10:39.489Z,4.35
2017-05-21T16:13:07.245Z,6.28
2017-05-21T16:15:36.548Z,5.00
2017-05-21T16:18:05.428Z,5.00
2017-05-21T16:20:33.153Z,5.33
2017-05-21T16:23:01.183Z,5.25
2017-05-21T16:25:29.494Z,6.37
2017-05-21T16:27:57.177Z,4.22
2017-05-21T16:30:25.656Z,4.85
2017-05-21T16:32:53.553Z,4.50
2017-05-21T16:35:21.186Z,3.80
2017-05-21T16:37:49.792Z,4.25
2017-05-21T16:40:17.466Z,5.08
2017-05-21T16:42:45.621Z,3.93
2017-05-21T16:45:14.187Z,4.60
2017-05-21T16:47:42.079Z,4.72
2017-05-21T16:50:10.960Z,4.52
2017-05-21T16:52:38.993Z,4.48
2017-05-21T16:55:06.897Z,4.57
2017-05-21T16:57:35.434Z,5.28
2017-05-21T17:00:03.883Z,4.65
2017-05-21T17:02:32.387Z,5.00
2017-05-21T17:04:59.975Z,4.78
2017-05-21T17:07:28.599Z,5.30
2017-05-21T17:09:56.248Z,5.28
2017-05-21T17:12:23.970Z,5.48
2017-05-21T17:14:52.448Z,5.73
2017-05-21T17:17:20.186Z,8.23
2017-05-21T17:19:50.628Z,3.78
2017-05-21T17:22:20.242Z,4.77
2017-05-21T17:24:48.968Z,6.75
2017-05-21T17:27:20.332Z,4.53
2017-05-21T17:29:49.033Z,4.93
2017-05-21T17:32:17.937Z,4.42
2017-05-21T17:34:46.942Z,4.55
2017-05-21T17:37:14.944Z,4.62
2017-05-21T17:39:43.058Z,3.77
2017-05-21T17:42:11.065Z,4.30
2017-05-21T17:44:39.069Z,4.45
2017-05-21T17:47:06.842Z,4.77
2017-05-21T17:49:35.648Z,4.42
2017-05-21T17:52:03.325Z,4.85
2017-05-21T17:54:32.064Z,4.92
2017-05-21T17:57:00.734Z,4.58
2017-05-21T17:59:29.183Z,4.85
2017-05-21T18:01:57.219Z,4.70
2017-05-21T18:04:25.811Z,3.60
2017-05-21T18:06:54.193Z,4.05
2017-05-21T18:09:21.866Z,4.20
2017-05-21T18:11:50.296Z,5.18
2017-05-21T18:14:17.943Z,4.42
2017-05-21T18:16:45.566Z,4.58
2017-05-21T18:19:13.138Z,4.15
2017-05-21T18:21:40.637Z,4.50
2017-05-21T18:24:08.218Z,4.07
2017-05-21T18:26:36.492Z,4.15
2017-05-21T18:29:04.840Z,4.57
2017-05-21T18:31:32.387Z,4.37
2017-05-21T18:34:00.232Z,4.03
2017-05-21T18:36:27.810Z,4.85
2017-05-21T18:38:55.381Z,3.80
2017-05-21T18:41:22.961Z,5.13
2017-05-21T18:43:50.464Z,4.97
2017-05-21T18:46:18.729Z,5.10
2017-05-21T18:48:46.801Z,5.20
2017-05-21T18:51:15.130Z,4.80
2017-05-21T18:53:42.689Z,5.05
2017-05-21T18:56:10.192Z,4.72
2017-05-21T18:58:38.496Z,5.25
2017-05-21T19:01:06.339Z,5.18
2017-05-21T19:03:33.856Z,5.35
2017-05-21T19:06:02.255Z,4.98
2017-05-21T19:08:30.885Z,5.18
2017-05-21T19:10:59.539Z,6.30
2017-05-21T19:13:28.116Z,6.47
2017-05-21T19:15:56.443Z,7.00
2017-05-21T19:18:24.025Z,6.40
2017-05-21T19:20:52.312Z,5.80
2017-05-21T19:23:20.911Z,5.90
2017-05-21T19:25:49.321Z,6.70
2017-05-21T19:28:17.511Z,7.53
2017-05-21T19:30:55.526Z,7.65
2017-05-21T19:33:24.057Z,5.82
2017-05-21T19:35:51.776Z,6.82
2017-05-21T19:38:19.778Z,7.00
2017-05-21T19:40:48.251Z,6.17
2017-05-21T19:43:15.908Z,7.25
2017-05-21T19:45:44.088Z,8.15
2017-05-21T19:48:12.583Z,8.37
2017-05-21T19:50:41.244Z,8.53
2017-05-21T19:53:09.421Z,8.83
2017-05-21T19:55:38.316Z,9.12
2017-05-21T19:58:05.948Z,8.38
2017-05-21T20:00:34.233Z,8.97
2017-05-21T20:03:03.024Z,7.63
2017-05-21T20:05:32.633Z,8.73
2017-05-21T20:08:00.483Z,8.60
2017-05-21T20:10:28.168Z,8.15
2017-05-21T20:12:57.472Z,9.98
2017-05-21T20:15:26.966Z,9.55
2017-05-21T20:17:54.632Z,8.15
2017-05-21T20:20:22.219Z,10.37
2017-05-21T20:22:50.851Z,9.67
2017-05-21T20:25:18.918Z,9.02
2017-05-21T20:27:47.240Z,9.43
2017-05-21T20:30:15.131Z,8.20
2017-05-21T20:32:42.756Z,9.45
2017-05-21T20:35:10.693Z,8.87
2017-05-21T20:37:39.344Z,8.63
2017-05-21T20:40:08.429Z,8.85
2017-05-21T20:42:36.112Z,8.53
2017-05-21T20:45:04.735Z,8.70
2017-05-21T20:47:33.564Z,9.15
2017-05-21T20:50:02.487Z,9.22
2017-05-21T20:52:30.960Z,8.73
2017-05-21T20:54:59.364Z,10.77
2017-05-21T20:57:28.174Z,9.93
2017-05-21T20:59:56.712Z,8.82
2017-05-21T21:02:24.628Z,9.80
2017-05-21T21:04:52.398Z,10.05
2017-05-21T21:07:20.209Z,10.48
2017-05-21T21:09:47.717Z,8.90
2017-05-21T21:12:15.271Z,9.67
2017-05-21T21:14:42.920Z,9.67
2017-05-21T21:17:11.200Z,9.10
2017-05-21T21:19:39.015Z,10.25
2017-05-21T21:22:06.590Z,10.17
2017-05-21T21:24:34.120Z,10.13
2017-05-21T21:27:01.629Z,10.40
2017-05-21T21:29:29.127Z,10.27
2017-05-21T21:31:57.421Z,10.33
2017-05-21T21:34:25.759Z,11.37
2017-05-21T21:36:53.319Z,10.25
2017-05-21T21:39:21.632Z,9.90
2017-05-21T21:41:49.135Z,9.73
2017-05-21T21:44:17.708Z,10.45
2017-05-21T21:46:45.205Z,11.38
2017-05-21T21:49:12.829Z,10.82
2017-05-21T21:51:40.333Z,10.62
2017-05-21T21:54:08.623Z,11.32
2017-05-21T21:56:36.157Z,10.30
2017-05-21T21:59:04.464Z,11.65
2017-05-21T22:01:32.822Z,11.15
2017-05-21T22:04:00.326Z,10.63
2017-05-21T22:06:28.638Z,11.18
2017-05-21T22:08:56.183Z,10.03
2017-05-21T22:11:23.687Z,9.75
2017-05-21T22:13:51.208Z,11.93
2017-05-21T22:16:19.471Z,11.02
2017-05-21T22:18:47.800Z,11.47
2017-05-21T22:21:16.133Z,11.37
2017-05-21T22:23:44.498Z,10.80
2017-05-21T22:26:12.031Z,11.30
2017-05-21T22:28:40.326Z,10.70
2017-05-21T22:31:08.652Z,10.58
2017-05-21T22:33:36.932Z,10.65
2017-05-21T22:36:05.267Z,11.00
2017-05-21T22:38:32.795Z,10.17
2017-05-21T22:41:01.055Z,10.28
2017-05-21T22:43:28.625Z,10.90
2017-05-21T22:45:56.973Z,10.57
2017-05-21T22:48:24.490Z,10.55
2017-05-21T22:50:52.819Z,10.38
2017-05-21T22:53:21.355Z,11.28
2017-05-21T22:55:49.620Z,11.23
2017-05-21T22:58:17.912Z,10.17
2017-05-21T23:00:45.445Z,11.12
2017-05-21T23:03:13.784Z,10.53
2017-05-21T23:05:41.603Z,11.38
2017-05-21T23:08:10.184Z,10.12
2017-05-21T23:10:38.763Z,11.62
2017-05-21T23:13:06.264Z,12.03
2017-05-21T23:15:33.818Z,12.87
2017-05-21T23:18:02.360Z,12.78
2017-05-21T23:20:29.887Z,12.57
2017-05-21T23:22:57.387Z,12.48
2017-05-21T23:25:24.912Z,12.60
2017-05-21T23:27:53.191Z,10.97
2017-05-21T23:30:20.717Z,13.12
2017-05-21T23:32:48.330Z,11.52
2017-05-21T23:35:16.640Z,11.67
2017-05-21T23:37:45.176Z,11.63
2017-05-21T23:40:12.697Z,11.33
2017-05-21T23:42:40.496Z,11.07
2017-05-21T23:45:09.076Z,11.82
2017-05-21T23:47:37.353Z,12.32
2017-05-21T23:50:05.676Z,11.58
2017-05-21T23:52:33.195Z,13.05
2017-05-21T23:55:00.734Z,11.63
2017-05-21T23:57:29.089Z,14.35
2017-05-21T23:59:57.381Z,12.80
